createdAt,value
2019-02-03T00:03:33.017Z,46.83
2019-02-03T00:06:21.810Z,45.60
2019-02-03T00:09:30.114Z,43.63
2019-02-03T00:12:18.902Z,42.00
2019-02-03T00:15:28.620Z,46.42
2019-02-03T00:18:17.434Z,42.90
2019-02-03T00:21:06.227Z,41.47
2019-02-03T00:23:55.037Z,46.37
2019-02-03T00:26:43.836Z,43.87
2019-02-03T00:29:33.419Z,39.07
2019-02-03T00:32:22.221Z,40.87
2019-02-03T00:38:25.999Z,40.50
2019-02-03T00:41:16.533Z,36.93
2019-02-03T00:47:33.950Z,34.73
2019-02-03T00:50:22.742Z,42.05
2019-02-03T00:53:11.614Z,39.05
2019-02-03T00:56:02.147Z,37.37
2019-02-03T00:58:50.956Z,35.77
2019-02-03T01:01:41.460Z,37.97
2019-02-03T01:04:30.265Z,44.03
2019-02-03T01:07:27.075Z,33.57
2019-02-03T01:10:30.579Z,33.33
2019-02-03T01:13:19.552Z,34.18
2019-02-03T01:16:08.343Z,34.53
2019-02-03T01:21:51.924Z,32.40
2019-02-03T01:27:34.633Z,31.97
2019-02-03T01:30:17.692Z,31.33
2019-02-03T01:33:06.492Z,33.70
2019-02-03T01:35:57.019Z,27.17
2019-02-03T01:38:45.825Z,34.97
2019-02-03T01:41:34.626Z,32.97
2019-02-03T01:44:23.440Z,32.70
2019-02-03T01:50:19.981Z,32.70
2019-02-03T01:53:08.796Z,32.97
2019-02-03T01:55:57.601Z,32.83
2019-02-03T01:58:48.136Z,32.00
2019-02-03T02:01:36.933Z,30.70
2019-02-03T02:04:27.479Z,38.17
2019-02-03T02:07:16.270Z,33.38
2019-02-03T02:10:25.987Z,36.07
2019-02-03T02:13:14.791Z,37.70
2019-02-03T02:16:04.002Z,34.97
2019-02-03T02:18:52.803Z,37.00
2019-02-03T02:21:41.598Z,34.27
2019-02-03T02:24:30.408Z,41.70
2019-02-03T02:27:20.933Z,37.50
2019-02-03T02:30:02.114Z,36.37
2019-02-03T02:35:45.612Z,36.97
2019-02-03T02:38:34.406Z,33.70
2019-02-03T02:41:23.282Z,37.17
2019-02-03T02:44:12.081Z,33.77
2019-02-03T02:47:00.904Z,40.57
2019-02-03T02:49:49.680Z,35.97
2019-02-03T02:52:57.588Z,35.20
2019-02-03T02:55:46.373Z,40.30
2019-02-03T02:58:35.180Z,41.10
2019-02-03T03:01:23.974Z,31.27
2019-02-03T03:04:12.784Z,34.40
2019-02-03T03:07:01.809Z,36.70
2019-02-03T03:09:50.634Z,31.10
2019-02-03T03:12:39.410Z,33.67
2019-02-03T03:15:28.225Z,32.50
2019-02-03T03:21:24.763Z,33.63
2019-02-03T03:24:13.624Z,33.23
2019-02-03T03:27:02.451Z,32.20
2019-02-03T03:29:51.239Z,25.87
2019-02-03T03:32:33.241Z,31.07
2019-02-03T03:35:22.171Z,28.80
2019-02-03T03:38:10.976Z,32.70
2019-02-03T03:40:59.835Z,33.60
2019-02-03T03:43:50.438Z,29.77
2019-02-03T03:46:39.251Z,32.33
2019-02-03T03:49:29.765Z,28.50
2019-02-03T03:52:18.642Z,30.80
2019-02-03T03:58:24.867Z,28.87
2019-02-03T04:01:13.741Z,26.67
2019-02-03T04:04:02.594Z,28.38
2019-02-03T04:06:51.406Z,28.87
2019-02-03T04:09:40.199Z,28.73
2019-02-03T04:12:29.010Z,25.07
2019-02-03T04:15:19.359Z,29.00
2019-02-03T04:18:08.148Z,29.87
2019-02-03T04:20:56.957Z,26.50
2019-02-03T04:23:47.497Z,26.60
2019-02-03T04:26:55.333Z,26.10
2019-02-03T04:29:44.139Z,23.53
2019-02-03T04:32:25.836Z,24.73
2019-02-03T04:35:14.624Z,25.97
2019-02-03T04:38:03.438Z,26.23
2019-02-03T04:40:53.946Z,21.43
2019-02-03T04:43:42.753Z,27.77
2019-02-03T04:46:33.266Z,23.10
2019-02-03T04:49:41.096Z,28.27
2019-02-03T04:52:30.183Z,26.77
2019-02-03T04:55:39.903Z,27.07
2019-02-03T04:58:28.712Z,24.77
2019-02-03T05:01:17.499Z,23.17
2019-02-03T05:04:06.312Z,25.85
2019-02-03T05:06:55.367Z,25.10
2019-02-03T05:09:37.332Z,27.00
2019-02-03T05:12:26.206Z,27.30
2019-02-03T05:15:35.923Z,29.13
2019-02-03T05:18:24.723Z,29.77
2019-02-03T05:21:13.526Z,28.50
2019-02-03T05:24:02.343Z,29.90
2019-02-03T05:26:51.145Z,24.17
2019-02-03T05:29:39.982Z,25.37
2019-02-03T05:32:28.798Z,26.07
2019-02-03T05:35:17.582Z,26.30
2019-02-03T05:38:06.459Z,28.60
2019-02-03T05:40:55.259Z,28.53
2019-02-03T05:43:44.067Z,22.40
2019-02-03T05:46:32.861Z,25.97
2019-02-03T05:49:23.383Z,28.40
2019-02-03T05:52:12.178Z,26.50
2019-02-03T05:55:02.708Z,24.97
2019-02-03T05:57:51.495Z,29.87
2019-02-03T06:03:39.610Z,22.60
2019-02-03T06:06:30.137Z,24.07
2019-02-03T06:09:18.926Z,23.80
2019-02-03T06:12:00.333Z,21.97
2019-02-03T06:14:49.143Z,21.70
2019-02-03T06:17:37.927Z,28.50
2019-02-03T06:20:26.800Z,22.90
2019-02-03T06:23:15.593Z,22.63
2019-02-03T06:26:04.404Z,24.20
2019-02-03T06:28:53.191Z,23.40
2019-02-03T06:31:41.997Z,24.23
2019-02-03T06:34:30.793Z,25.97
2019-02-03T06:37:21.321Z,22.10
2019-02-03T06:43:26.143Z,22.47
2019-02-03T06:46:33.985Z,24.60
2019-02-03T06:55:26.264Z,22.40
2019-02-03T06:58:15.085Z,25.10
2019-02-03T07:01:04.141Z,26.17
2019-02-03T07:03:52.986Z,24.07
2019-02-03T07:06:41.866Z,26.40
2019-02-03T07:09:31.046Z,24.67
2019-02-03T07:12:12.759Z,23.62
2019-02-03T07:15:01.572Z,26.37
2019-02-03T07:17:50.364Z,26.77
2019-02-03T07:20:40.884Z,24.50
2019-02-03T07:23:29.679Z,26.67
2019-02-03T07:26:18.487Z,25.40
2019-02-03T07:28:59.899Z,25.40
2019-02-03T07:31:48.709Z,23.30
2019-02-03T07:34:37.516Z,23.40
2019-02-03T07:37:26.307Z,20.43
2019-02-03T07:40:36.019Z,22.07
2019-02-03T07:43:24.808Z,22.33
2019-02-03T07:46:13.613Z,22.67
2019-02-03T07:52:11.806Z,22.50
2019-02-03T07:55:00.707Z,24.72
2019-02-03T07:57:49.482Z,22.80
2019-02-03T08:00:40.295Z,23.95
2019-02-03T08:03:29.091Z,24.90
2019-02-03T08:09:32.569Z,24.43
2019-02-03T08:12:21.380Z,20.93
2019-02-03T08:15:02.843Z,24.47
2019-02-03T08:17:51.728Z,24.37
2019-02-03T08:20:40.507Z,21.07
2019-02-03T08:23:29.315Z,22.30
2019-02-03T08:26:18.121Z,22.43
2019-02-03T08:32:35.323Z,20.43
2019-02-03T08:35:24.135Z,22.97
2019-02-03T08:38:12.943Z,24.70
2019-02-03T08:41:01.734Z,25.57
2019-02-03T08:43:50.554Z,22.10
2019-02-03T08:46:39.337Z,23.17
2019-02-03T08:49:47.174Z,21.70
2019-02-03T08:52:35.959Z,22.30
2019-02-03T08:55:24.771Z,22.17
2019-02-03T08:58:13.556Z,24.35
2019-02-03T09:01:02.359Z,19.90
2019-02-03T09:03:51.158Z,21.90
2019-02-03T09:06:39.967Z,20.53
2019-02-03T09:09:28.758Z,19.30
2019-02-03T09:12:17.563Z,22.50
2019-02-03T09:15:27.260Z,19.55
2019-02-03T09:18:16.081Z,20.47
2019-02-03T09:21:05.139Z,23.87
2019-02-03T09:23:53.939Z,20.33
2019-02-03T09:26:42.729Z,20.43
2019-02-03T09:29:31.549Z,21.00
2019-02-03T09:32:12.928Z,18.77
2019-02-03T09:35:01.718Z,21.40
2019-02-03T09:37:52.242Z,18.70
2019-02-03T09:40:41.029Z,18.30
2019-02-03T09:43:31.555Z,19.93
2019-02-03T09:46:20.410Z,21.87
2019-02-03T09:49:09.221Z,21.20
2019-02-03T09:51:58.005Z,20.97
2019-02-03T09:54:46.814Z,22.82
2019-02-03T09:57:35.601Z,21.17
2019-02-03T10:00:45.343Z,20.07
2019-02-03T10:03:34.191Z,22.47
2019-02-03T10:06:23.002Z,20.00
2019-02-03T10:09:11.826Z,22.25
2019-02-03T10:12:00.642Z,18.47
2019-02-03T10:14:49.434Z,21.93
2019-02-03T10:17:30.836Z,19.00
2019-02-03T10:20:38.944Z,23.37
2019-02-03T10:23:27.749Z,20.87
2019-02-03T10:26:18.277Z,20.60
2019-02-03T10:29:07.156Z,19.20
2019-02-03T10:31:56.019Z,21.30
2019-02-03T10:34:44.832Z,18.80
2019-02-03T10:37:33.630Z,21.93
2019-02-03T10:40:42.873Z,20.50
2019-02-03T10:43:31.670Z,17.17
2019-02-03T10:46:20.477Z,20.67
2019-02-03T10:49:09.264Z,20.07
2019-02-03T10:51:58.082Z,19.57
2019-02-03T10:54:46.873Z,19.10
2019-02-03T11:00:50.194Z,18.15
2019-02-03T11:03:40.703Z,14.77
2019-02-03T11:06:29.510Z,15.30
2019-02-03T11:09:18.318Z,15.87
2019-02-03T11:12:07.194Z,17.20
2019-02-03T11:14:48.878Z,16.83
2019-02-03T11:17:37.681Z,14.53
2019-02-03T11:20:47.401Z,19.20
2019-02-03T11:23:55.235Z,16.27
2019-02-03T11:26:36.961Z,13.50
2019-02-03T11:29:25.801Z,12.70
2019-02-03T11:32:14.607Z,17.35
2019-02-03T11:35:03.400Z,13.85
2019-02-03T11:37:52.266Z,13.90
2019-02-03T11:40:41.059Z,20.60
2019-02-03T11:43:29.876Z,13.85
2019-02-03T11:46:20.373Z,13.28
2019-02-03T11:49:09.179Z,15.28
2019-02-03T11:51:59.709Z,13.60
2019-02-03T11:54:48.496Z,12.55
2019-02-03T11:57:37.304Z,14.43
2019-02-03T12:00:47.014Z,10.90
2019-02-03T12:03:35.830Z,12.50
2019-02-03T12:06:24.615Z,13.95
2019-02-03T12:09:13.425Z,14.38
2019-02-03T12:12:02.213Z,15.50
2019-02-03T12:14:51.041Z,11.73
2019-02-03T12:17:40.166Z,13.90
2019-02-03T12:20:30.697Z,15.40
2019-02-03T12:23:19.512Z,13.70
2019-02-03T12:26:10.049Z,11.70
2019-02-03T12:28:51.774Z,13.80
2019-02-03T12:31:40.589Z,11.20
2019-02-03T12:34:29.383Z,16.57
2019-02-03T12:37:18.192Z,9.30
2019-02-03T12:40:27.893Z,10.43
2019-02-03T12:43:18.415Z,12.77
2019-02-03T12:46:07.284Z,11.63
2019-02-03T12:48:58.181Z,14.07
2019-02-03T12:51:46.967Z,12.83
2019-02-03T12:54:37.509Z,16.48
2019-02-03T12:57:26.310Z,11.53
2019-02-03T13:00:36.029Z,10.10
2019-02-03T13:03:25.362Z,10.43
2019-02-03T13:06:15.350Z,8.90
2019-02-03T13:09:25.081Z,9.60
2019-02-03T13:15:32.394Z,10.57
2019-02-03T13:18:21.217Z,10.40
2019-02-03T13:21:10.076Z,9.10
2019-02-03T13:23:59.121Z,9.50
2019-02-03T13:26:47.931Z,9.50
2019-02-03T13:29:36.803Z,12.40
2019-02-03T13:32:25.670Z,12.50
2019-02-03T13:35:33.709Z,8.90
2019-02-03T13:38:22.550Z,8.10
2019-02-03T13:41:11.391Z,8.80
2019-02-03T13:44:21.065Z,7.70
2019-02-03T13:47:09.850Z,9.60
2019-02-03T13:49:58.645Z,9.37
2019-02-03T13:52:49.236Z,8.23
2019-02-03T13:55:38.038Z,5.87
2019-02-03T13:58:36.536Z,7.28
2019-02-03T14:01:17.362Z,6.07
2019-02-03T14:04:06.217Z,6.93
2019-02-03T14:06:55.026Z,7.07
2019-02-03T14:09:43.812Z,7.47
2019-02-03T14:12:32.618Z,6.40
2019-02-03T14:15:21.588Z,7.37
2019-02-03T14:18:03.150Z,8.10
2019-02-03T14:20:51.952Z,8.25
2019-02-03T14:23:40.767Z,8.03
2019-02-03T14:26:29.561Z,7.30
2019-02-03T14:29:20.236Z,6.50
2019-02-03T14:32:08.967Z,7.33
2019-02-03T14:34:59.498Z,5.60
2019-02-03T14:37:48.372Z,7.93
2019-02-03T14:40:39.216Z,6.33
2019-02-03T14:43:28.097Z,5.83
2019-02-03T14:46:16.879Z,7.73
2019-02-03T14:49:05.693Z,8.43
2019-02-03T14:51:54.467Z,8.45
2019-02-03T14:54:43.291Z,7.87
2019-02-03T14:57:32.087Z,8.65
2019-02-03T15:00:41.693Z,9.68
2019-02-03T15:03:32.221Z,5.83
2019-02-03T15:06:21.017Z,5.13
2019-02-03T15:09:12.051Z,5.97
2019-02-03T15:12:00.867Z,6.43
2019-02-03T15:14:49.646Z,7.87
2019-02-03T15:17:38.449Z,6.00
2019-02-03T15:20:28.103Z,7.20
2019-02-03T15:23:16.909Z,6.03
2019-02-03T15:26:05.954Z,8.00
2019-02-03T15:28:54.837Z,6.53
2019-02-03T15:31:43.631Z,10.05
2019-02-03T15:34:32.441Z,13.90
2019-02-03T15:37:21.229Z,7.53
2019-02-03T15:40:30.958Z,5.77
2019-02-03T15:43:25.640Z,5.70
2019-02-03T15:46:12.069Z,6.73
2019-02-03T15:49:01.016Z,7.50
2019-02-03T15:51:49.825Z,11.10
2019-02-03T15:54:38.618Z,6.00
2019-02-03T15:57:30.428Z,6.10
2019-02-03T16:00:38.435Z,4.67
2019-02-03T16:03:27.240Z,5.93
2019-02-03T16:06:16.061Z,6.23
2019-02-03T16:09:25.778Z,9.93
2019-02-03T16:12:14.566Z,6.00
2019-02-03T16:14:56.384Z,5.30
2019-02-03T16:17:45.174Z,4.90
2019-02-03T16:20:33.985Z,5.17
2019-02-03T16:23:22.779Z,5.53
2019-02-03T16:26:11.583Z,9.83
2019-02-03T16:29:00.378Z,11.73
2019-02-03T16:31:49.176Z,6.73
2019-02-03T16:34:37.978Z,10.00
2019-02-03T16:37:26.789Z,4.20
2019-02-03T16:40:34.903Z,4.50
2019-02-03T16:43:23.715Z,4.50
2019-02-03T16:46:12.513Z,7.80
2019-02-03T16:49:01.344Z,7.20
2019-02-03T16:51:50.237Z,6.60
2019-02-03T16:54:39.035Z,6.40
2019-02-03T16:57:27.834Z,7.00
2019-02-03T17:00:37.561Z,5.33
2019-02-03T17:03:28.074Z,5.03
2019-02-03T17:06:17.165Z,4.87
2019-02-03T17:12:16.947Z,7.30
2019-02-03T17:15:26.649Z,4.43
2019-02-03T17:18:17.188Z,5.43
2019-02-03T17:21:05.990Z,4.67
2019-02-03T17:27:02.528Z,7.00
2019-02-03T17:29:51.316Z,5.17
2019-02-03T17:32:40.129Z,6.90
2019-02-03T17:35:30.691Z,4.90
2019-02-03T17:38:19.522Z,5.57
2019-02-03T17:41:10.096Z,7.17
2019-02-03T17:43:58.903Z,7.27
2019-02-03T17:46:47.708Z,9.43
2019-02-03T17:49:36.542Z,5.07
2019-02-03T17:52:25.469Z,8.10
2019-02-03T17:55:33.597Z,6.25
2019-02-03T17:58:22.561Z,6.20
2019-02-03T18:01:11.363Z,4.80
2019-02-03T18:04:01.861Z,4.43
2019-02-03T18:06:41.622Z,6.23
2019-02-03T18:09:30.485Z,4.20
2019-02-03T18:12:19.293Z,8.85
2019-02-03T18:15:28.987Z,7.10
2019-02-03T18:18:17.906Z,9.07
2019-02-03T18:21:06.683Z,5.00
2019-02-03T18:23:55.554Z,6.77
2019-02-03T18:26:44.368Z,11.10
2019-02-03T18:29:33.153Z,7.60
2019-02-03T18:32:21.955Z,8.67
2019-02-03T18:35:31.656Z,5.87
2019-02-03T18:38:22.303Z,7.90
2019-02-03T18:41:11.142Z,9.70
2019-02-03T18:43:59.997Z,6.13
2019-02-03T18:46:48.909Z,4.97
2019-02-03T18:49:37.767Z,7.30
2019-02-03T18:52:26.640Z,9.50
2019-02-03T18:55:37.716Z,11.45
2019-02-03T18:58:18.948Z,7.40
2019-02-03T19:01:07.822Z,8.53
2019-02-03T19:03:56.618Z,4.87
2019-02-03T19:06:38.157Z,9.10
2019-02-03T19:09:26.952Z,10.72
2019-02-03T19:12:15.773Z,6.97
2019-02-03T19:18:19.929Z,10.57
2019-02-03T19:21:08.741Z,10.67
2019-02-03T19:23:57.613Z,10.83
2019-02-03T19:26:46.362Z,12.00
2019-02-03T19:29:35.172Z,8.00
2019-02-03T19:32:23.959Z,10.50
2019-02-03T19:38:28.931Z,5.70
2019-02-03T19:41:17.719Z,7.40
2019-02-03T19:44:06.529Z,8.50
2019-02-03T19:46:57.032Z,5.87
2019-02-03T19:49:46.582Z,5.40
2019-02-03T19:52:36.359Z,11.67
2019-02-03T19:55:25.178Z,7.72
2019-02-03T19:58:13.984Z,8.97
2019-02-03T20:01:02.778Z,5.43
2019-02-03T20:03:51.611Z,4.80
2019-02-03T20:06:31.348Z,5.67
2019-02-03T20:09:20.150Z,5.77
2019-02-03T20:12:08.972Z,7.37
2019-02-03T20:14:57.783Z,4.70
2019-02-03T20:17:48.418Z,5.43
2019-02-03T20:20:56.617Z,5.00
2019-02-03T20:23:45.513Z,4.45
2019-02-03T20:26:34.296Z,7.07
2019-02-03T20:29:23.129Z,4.03
2019-02-03T20:32:11.911Z,3.40
2019-02-03T20:35:00.808Z,5.60
2019-02-03T20:37:49.703Z,6.17
2019-02-03T20:41:01.128Z,5.20
2019-02-03T20:43:49.924Z,5.13
2019-02-03T20:46:38.720Z,6.47
2019-02-03T20:49:27.510Z,6.40
2019-02-03T20:52:16.326Z,16.13
2019-02-03T20:55:26.338Z,7.40
2019-02-03T20:58:08.496Z,6.40
2019-02-03T21:00:57.378Z,7.33
2019-02-03T21:03:46.170Z,5.60
2019-02-03T21:06:35.023Z,4.90
2019-02-03T21:09:23.820Z,5.00
2019-02-03T21:12:12.635Z,5.17
2019-02-03T21:15:01.727Z,6.78
2019-02-03T21:17:50.541Z,9.55
2019-02-03T21:20:39.310Z,5.87
2019-02-03T21:23:28.120Z,8.47
2019-02-03T21:26:16.895Z,9.93
2019-02-03T21:29:05.781Z,8.95
2019-02-03T21:31:54.567Z,8.73
2019-02-03T21:34:43.388Z,9.60
2019-02-03T21:37:32.181Z,8.53
2019-02-03T21:40:41.896Z,9.77
2019-02-03T21:43:30.688Z,7.97
2019-02-03T21:46:19.506Z,10.83
2019-02-03T21:49:08.590Z,10.63
2019-02-03T21:51:57.403Z,9.00
2019-02-03T21:54:46.279Z,10.08
2019-02-03T21:57:35.210Z,11.83
2019-02-03T22:00:23.209Z,9.70
2019-02-03T22:03:12.032Z,9.37
2019-02-03T22:06:00.821Z,8.40
2019-02-03T22:08:51.333Z,13.03
2019-02-03T22:11:40.145Z,10.10
2019-02-03T22:14:30.754Z,15.00
2019-02-03T22:17:19.553Z,12.10
2019-02-03T22:20:29.267Z,16.30
2019-02-03T22:23:18.055Z,10.20
2019-02-03T22:26:06.879Z,12.73
2019-02-03T22:28:55.663Z,12.20
2019-02-03T22:31:44.469Z,10.50
2019-02-03T22:34:33.261Z,26.20
2019-02-03T22:37:22.253Z,12.45
2019-02-03T22:40:31.956Z,12.10
2019-02-03T22:43:20.772Z,12.70
2019-02-03T22:46:09.624Z,12.63
2019-02-03T22:48:58.525Z,11.83
2019-02-03T22:51:47.360Z,10.07
2019-02-03T22:54:36.224Z,9.75
2019-02-03T22:57:25.172Z,10.90
2019-02-03T23:00:54.300Z,10.93
2019-02-03T23:03:43.751Z,14.78
2019-02-03T23:06:32.642Z,11.70
2019-02-03T23:12:17.269Z,13.10
2019-02-03T23:15:27.025Z,14.50
2019-02-03T23:18:09.695Z,18.40
2019-02-03T23:20:58.561Z,12.93
2019-02-03T23:23:47.458Z,12.40
2019-02-03T23:26:36.451Z,13.60
2019-02-03T23:29:25.268Z,12.47
2019-02-03T23:32:14.064Z,9.15
2019-02-03T23:35:02.880Z,10.43
2019-02-03T23:37:53.418Z,11.23
2019-02-03T23:40:42.208Z,9.60
2019-02-03T23:43:31.025Z,9.10
2019-02-03T23:46:29.386Z,9.73
2019-02-03T23:49:10.357Z,12.03
2019-02-03T23:51:59.150Z,10.83
2019-02-03T23:54:49.812Z,11.03
2019-02-03T23:57:38.478Z,9.43
